createdAt,value
2023-01-08T00:01:18.704Z,9.02
2023-01-08T00:03:48.234Z,9.09
2023-01-08T00:06:19.581Z,9.09
2023-01-08T00:08:48.972Z,9.05
2023-01-08T00:11:18.356Z,9.13
2023-01-08T00:13:59.483Z,9.15
2023-01-08T00:16:31.720Z,9.14
2023-01-08T00:19:01.210Z,9.09
2023-01-08T00:21:31.141Z,9.14
2023-01-08T00:24:00.581Z,9.18
2023-01-08T00:26:29.997Z,9.16
2023-01-08T00:28:59.465Z,9.22
2023-01-08T00:31:31.544Z,9.25
2023-01-08T00:34:00.974Z,9.21
2023-01-08T00:36:30.410Z,9.28
2023-01-08T00:39:02.077Z,9.35
2023-01-08T00:41:31.591Z,9.41
2023-01-08T00:44:00.963Z,9.49
2023-01-08T00:46:32.973Z,9.52
2023-01-08T00:49:02.304Z,9.59
2023-01-08T00:51:31.651Z,9.54
2023-01-08T00:54:00.981Z,9.51
2023-01-08T00:56:30.408Z,9.51
2023-01-08T00:58:59.791Z,9.55
2023-01-08T01:01:29.381Z,9.52
2023-01-08T01:04:01.466Z,9.60
2023-01-08T01:06:31.194Z,9.61
2023-01-08T01:09:00.617Z,9.55
2023-01-08T01:11:31.594Z,9.53
2023-01-08T01:14:00.972Z,9.47
2023-01-08T01:16:30.722Z,9.42
2023-01-08T01:19:02.810Z,9.44
2023-01-08T01:21:34.193Z,9.42
2023-01-08T01:24:04.986Z,9.42
2023-01-08T01:26:35.765Z,9.42
2023-01-08T01:29:05.292Z,9.41
2023-01-08T01:31:35.405Z,9.39
2023-01-08T01:34:07.388Z,9.37
2023-01-08T01:36:36.814Z,9.37
2023-01-08T01:39:06.613Z,9.36
2023-01-08T01:41:40.618Z,9.40
2023-01-08T01:44:42.566Z,9.44
2023-01-08T01:47:22.325Z,9.42
2023-01-08T01:49:59.712Z,9.42
2023-01-08T01:52:32.615Z,9.46
2023-01-08T01:55:03.451Z,9.47
2023-01-08T01:57:35.225Z,9.47
2023-01-08T02:00:07.188Z,9.49
2023-01-08T02:02:41.309Z,9.50
2023-01-08T02:05:13.758Z,9.51
2023-01-08T02:07:48.048Z,9.49
2023-01-08T02:10:23.251Z,9.46
2023-01-08T02:12:59.345Z,9.48
2023-01-08T02:15:35.014Z,9.48
2023-01-08T02:18:10.136Z,9.55
2023-01-08T02:20:46.619Z,9.55
2023-01-08T02:23:29.124Z,9.55
2023-01-08T02:26:14.991Z,9.55
2023-01-08T02:28:48.764Z,9.56
2023-01-08T02:31:19.395Z,9.54
2023-01-08T02:33:48.930Z,9.52
2023-01-08T02:36:28.944Z,9.54
2023-01-08T02:39:09.255Z,9.55
2023-01-08T02:41:56.179Z,9.55
2023-01-08T02:44:41.965Z,9.55
2023-01-08T02:47:18.334Z,9.50
2023-01-08T02:49:49.908Z,9.54
2023-01-08T02:52:22.239Z,9.50
2023-01-08T02:54:52.384Z,9.48
2023-01-08T02:57:24.553Z,9.51
2023-01-08T02:59:54.826Z,9.54
2023-01-08T03:02:25.272Z,9.52
2023-01-08T03:04:59.712Z,9.51
2023-01-08T03:07:29.179Z,9.48
2023-01-08T03:09:58.743Z,9.48
2023-01-08T03:12:39.486Z,9.51
2023-01-08T03:15:12.291Z,9.52
2023-01-08T03:17:45.562Z,9.52
2023-01-08T03:20:17.109Z,9.55
2023-01-08T03:22:50.513Z,9.56
2023-01-08T03:25:23.038Z,9.63
2023-01-08T03:27:58.501Z,9.61
2023-01-08T03:30:28.851Z,9.62
2023-01-08T03:33:02.986Z,9.66
2023-01-08T03:35:34.676Z,9.65
2023-01-08T03:38:09.606Z,9.61
2023-01-08T03:40:45.827Z,9.61
2023-01-08T03:43:17.888Z,9.58
2023-01-08T03:45:51.936Z,9.63
2023-01-08T03:48:23.547Z,9.61
2023-01-08T03:50:53.069Z,9.61
2023-01-08T03:53:22.528Z,9.63
2023-01-08T03:55:51.906Z,9.61
2023-01-08T03:58:23.930Z,9.60
2023-01-08T04:00:53.391Z,9.64
2023-01-08T04:03:24.600Z,9.65
2023-01-08T04:05:54.113Z,9.63
2023-01-08T04:08:23.613Z,9.61
2023-01-08T04:10:52.957Z,9.63
2023-01-08T04:13:24.921Z,9.59
2023-01-08T04:15:54.630Z,9.56
2023-01-08T04:18:24.073Z,9.61
2023-01-08T04:20:53.457Z,9.58
2023-01-08T04:23:22.812Z,9.55
2023-01-08T04:25:52.200Z,9.54
2023-01-08T04:28:22.108Z,9.52
2023-01-08T04:30:54.385Z,9.49
2023-01-08T04:33:25.447Z,9.50
2023-01-08T04:35:54.913Z,9.49
2023-01-08T04:38:24.401Z,9.51
2023-01-08T04:40:59.269Z,9.50
2023-01-08T04:43:29.274Z,9.46
2023-01-08T04:46:03.524Z,9.47
2023-01-08T04:48:33.711Z,9.47
2023-01-08T04:51:04.060Z,9.46
2023-01-08T04:53:37.592Z,9.46
2023-01-08T04:56:08.133Z,9.50
2023-01-08T04:58:38.871Z,9.58
2023-01-08T05:01:16.587Z,9.52
2023-01-08T05:03:46.044Z,9.49
2023-01-08T05:06:15.467Z,9.48
2023-01-08T05:08:44.875Z,9.50
2023-01-08T05:11:14.310Z,9.47
2023-01-08T05:13:43.822Z,9.47
2023-01-08T05:16:15.840Z,9.46
2023-01-08T05:18:45.491Z,9.44
2023-01-08T05:21:15.854Z,9.45
2023-01-08T05:23:48.374Z,9.48
2023-01-08T05:26:19.409Z,9.49
2023-01-08T05:28:49.506Z,9.48
2023-01-08T05:31:21.650Z,9.46
2023-01-08T05:33:51.542Z,9.45
2023-01-08T05:36:20.924Z,9.47
2023-01-08T05:38:50.276Z,9.44
2023-01-08T05:41:19.615Z,9.42
2023-01-08T05:43:48.998Z,9.37
2023-01-08T05:46:21.055Z,9.38
2023-01-08T05:48:50.417Z,9.35
2023-01-08T05:51:19.791Z,9.30
2023-01-08T05:53:49.148Z,9.28
2023-01-08T05:56:18.544Z,9.29
2023-01-08T05:58:47.929Z,9.27
2023-01-08T06:01:20.912Z,9.24
2023-01-08T06:03:50.371Z,9.25
2023-01-08T06:06:19.864Z,9.17
2023-01-08T06:08:49.257Z,9.15
2023-01-08T06:11:18.713Z,9.19
2023-01-08T06:13:48.127Z,9.00
2023-01-08T06:16:17.680Z,9.00
2023-01-08T06:18:50.135Z,8.90
2023-01-08T06:21:19.639Z,8.96
2023-01-08T06:23:49.042Z,8.96
2023-01-08T06:26:18.478Z,8.95
2023-01-08T06:28:47.841Z,8.93
2023-01-08T06:31:17.267Z,8.98
2023-01-08T06:33:49.318Z,8.96
2023-01-08T06:36:18.733Z,8.97
2023-01-08T06:38:48.124Z,8.96
2023-01-08T06:41:17.558Z,8.86
2023-01-08T06:43:46.913Z,8.81
2023-01-08T06:46:16.427Z,8.86
2023-01-08T06:48:45.917Z,8.70
2023-01-08T06:51:17.868Z,8.74
2023-01-08T06:53:47.363Z,8.70
2023-01-08T06:56:16.832Z,8.65
2023-01-08T06:58:46.314Z,8.60
2023-01-08T07:01:17.709Z,8.71
2023-01-08T07:03:47.378Z,8.73
2023-01-08T07:06:21.771Z,8.65
2023-01-08T07:08:51.925Z,8.74
2023-01-08T07:11:21.385Z,8.78
2023-01-08T07:13:50.801Z,8.79
2023-01-08T07:16:20.354Z,8.79
2023-01-08T07:18:49.773Z,8.80
2023-01-08T07:21:22.642Z,8.80
2023-01-08T07:23:52.229Z,8.80
2023-01-08T07:26:21.647Z,8.76
2023-01-08T07:28:51.100Z,8.75
2023-01-08T07:31:20.554Z,8.75
2023-01-08T07:33:50.558Z,8.71
2023-01-08T07:36:24.372Z,8.74
2023-01-08T07:38:53.969Z,8.74
2023-01-08T07:41:23.393Z,8.71
2023-01-08T07:43:53.383Z,8.65
2023-01-08T07:46:23.046Z,8.68
2023-01-08T07:48:52.549Z,8.59
2023-01-08T07:51:24.555Z,8.65
2023-01-08T07:53:56.249Z,8.65
2023-01-08T07:56:26.668Z,8.69
2023-01-08T07:58:56.606Z,8.70
2023-01-08T08:01:26.783Z,8.71
2023-01-08T08:03:56.335Z,8.69
2023-01-08T08:06:28.359Z,8.70
2023-01-08T08:09:00.115Z,8.73
2023-01-08T08:11:29.636Z,8.76
2023-01-08T08:13:59.057Z,8.72
2023-01-08T08:16:28.595Z,8.77
2023-01-08T08:19:00.417Z,8.79
2023-01-08T08:21:32.436Z,8.79
2023-01-08T08:24:02.320Z,8.81
2023-01-08T08:26:31.801Z,8.82
2023-01-08T08:29:01.181Z,8.82
2023-01-08T08:31:30.794Z,8.84
2023-01-08T08:34:00.232Z,8.85
2023-01-08T08:36:35.193Z,8.85
2023-01-08T08:39:05.285Z,8.88
2023-01-08T08:41:34.781Z,8.90
2023-01-08T08:44:04.241Z,8.94
2023-01-08T08:46:33.749Z,8.95
2023-01-08T08:49:03.412Z,8.98
2023-01-08T08:51:36.134Z,9.03
2023-01-08T08:54:05.367Z,9.01
2023-01-08T08:56:34.721Z,9.10
2023-01-08T08:59:04.129Z,9.13
2023-01-08T09:01:33.666Z,9.15
2023-01-08T09:04:03.103Z,9.20
2023-01-08T09:06:35.167Z,9.18
2023-01-08T09:09:04.680Z,9.21
2023-01-08T09:11:34.163Z,9.25
2023-01-08T09:14:03.571Z,9.27
2023-01-08T09:16:33.210Z,9.36
2023-01-08T09:19:02.704Z,9.50
2023-01-08T09:21:34.759Z,9.42
2023-01-08T09:24:04.163Z,9.35
2023-01-08T09:26:33.643Z,9.22
2023-01-08T09:29:03.177Z,9.22
2023-01-08T09:31:32.582Z,9.27
2023-01-08T09:34:02.109Z,9.23
2023-01-08T09:36:35.059Z,9.18
2023-01-08T09:39:04.907Z,9.21
2023-01-08T09:41:38.372Z,9.25
2023-01-08T09:44:09.302Z,9.36
2023-01-08T09:46:39.293Z,9.43
2023-01-08T09:49:14.232Z,9.51
2023-01-08T09:51:46.413Z,9.69
2023-01-08T09:54:18.808Z,9.63
2023-01-08T09:56:48.409Z,9.66
2023-01-08T09:59:21.115Z,9.66
2023-01-08T10:01:50.589Z,9.72
2023-01-08T10:04:22.062Z,9.73
2023-01-08T10:06:57.094Z,9.73
2023-01-08T10:09:29.544Z,9.76
2023-01-08T10:12:02.257Z,9.94
2023-01-08T10:14:32.798Z,9.87
2023-01-08T10:17:11.409Z,9.97
2023-01-08T10:19:41.356Z,10.01
2023-01-08T10:22:19.204Z,10.05
2023-01-08T10:24:48.646Z,10.04
2023-01-08T10:27:20.730Z,10.15
2023-01-08T10:29:50.259Z,10.21
2023-01-08T10:32:22.232Z,10.29
2023-01-08T10:34:54.341Z,10.25
2023-01-08T10:37:31.942Z,10.35
2023-01-08T10:40:10.152Z,10.26
2023-01-08T10:42:39.667Z,10.14
2023-01-08T10:45:20.462Z,10.23
2023-01-08T10:47:52.092Z,10.29
2023-01-08T10:50:25.821Z,10.32
2023-01-08T10:53:02.925Z,10.47
2023-01-08T10:55:36.044Z,10.21
2023-01-08T10:58:14.650Z,10.28
2023-01-08T11:00:44.738Z,10.17
2023-01-08T11:03:27.683Z,10.20
2023-01-08T11:05:57.598Z,10.24
2023-01-08T11:08:29.672Z,10.28
2023-01-08T11:11:03.509Z,10.43
2023-01-08T11:13:33.145Z,10.47
2023-01-08T11:16:06.628Z,10.45
2023-01-08T11:18:46.267Z,10.52
2023-01-08T11:21:23.245Z,10.59
2023-01-08T11:24:13.936Z,10.57
2023-01-08T11:26:46.195Z,10.81
2023-01-08T11:29:18.709Z,11.05
2023-01-08T11:31:55.683Z,11.26
2023-01-08T11:34:34.329Z,11.04
2023-01-08T11:37:15.296Z,11.24
2023-01-08T11:39:48.108Z,11.09
2023-01-08T11:42:49.035Z,11.01
2023-01-08T11:45:26.497Z,10.98
2023-01-08T11:48:21.768Z,11.12
2023-01-08T11:51:03.087Z,11.05
2023-01-08T11:53:39.853Z,11.19
2023-01-08T11:56:23.173Z,11.36
2023-01-08T11:59:08.883Z,11.33
2023-01-08T12:01:50.875Z,11.40
2023-01-08T12:04:47.708Z,11.49
2023-01-08T12:07:26.149Z,11.72
2023-01-08T12:10:04.053Z,11.74
2023-01-08T12:12:57.960Z,11.43
2023-01-08T12:15:37.554Z,11.31
2023-01-08T12:18:26.187Z,11.23
2023-01-08T12:21:07.695Z,11.29
2023-01-08T12:23:56.215Z,11.23
2023-01-08T12:26:33.413Z,11.16
2023-01-08T12:29:29.426Z,11.22
2023-01-08T12:32:20.195Z,11.16
2023-01-08T12:34:58.689Z,11.14
2023-01-08T12:37:32.229Z,11.18
2023-01-08T12:40:07.681Z,10.99
2023-01-08T12:42:50.134Z,11.02
2023-01-08T12:45:30.715Z,11.09
2023-01-08T12:48:05.851Z,11.20
2023-01-08T12:50:58.157Z,11.28
2023-01-08T12:53:36.995Z,11.33
2023-01-08T12:56:15.203Z,11.13
2023-01-08T12:59:01.733Z,11.23
2023-01-08T13:01:42.515Z,11.37
2023-01-08T13:04:13.781Z,11.43
2023-01-08T13:06:52.877Z,11.29
2023-01-08T13:09:27.766Z,11.30
2023-01-08T13:12:00.018Z,11.36
2023-01-08T13:14:30.620Z,11.64
2023-01-08T13:17:07.729Z,11.35
2023-01-08T13:19:42.829Z,11.55
2023-01-08T13:22:27.317Z,11.57
2023-01-08T13:25:12.673Z,11.73
2023-01-08T13:27:42.107Z,11.63
2023-01-08T13:30:35.009Z,11.80
2023-01-08T13:33:28.314Z,12.16
2023-01-08T13:36:21.578Z,12.20
2023-01-08T13:39:03.745Z,11.63
2023-01-08T13:41:34.943Z,11.75
2023-01-08T13:44:06.642Z,12.02
2023-01-08T13:46:41.047Z,12.03
2023-01-08T13:49:26.391Z,12.15
2023-01-08T13:51:56.118Z,12.03
2023-01-08T13:54:41.053Z,11.96
2023-01-08T13:57:16.713Z,11.73
2023-01-08T13:59:51.119Z,11.43
2023-01-08T14:02:26.688Z,11.33
2023-01-08T14:04:59.336Z,11.46
2023-01-08T14:07:30.750Z,11.50
2023-01-08T14:10:10.321Z,11.51
2023-01-08T14:12:39.688Z,11.50
2023-01-08T14:15:12.637Z,11.11
2023-01-08T14:17:46.110Z,11.50
2023-01-08T14:20:26.052Z,11.06
2023-01-08T14:22:55.508Z,10.73
2023-01-08T14:25:25.751Z,10.60
2023-01-08T14:28:00.512Z,10.47
2023-01-08T14:30:30.740Z,10.33
2023-01-08T14:33:04.429Z,10.21
2023-01-08T14:35:38.230Z,10.18
2023-01-08T14:38:07.719Z,10.26
2023-01-08T14:40:44.474Z,10.36
2023-01-08T14:43:16.070Z,10.41
2023-01-08T14:45:50.180Z,10.49
2023-01-08T14:48:23.861Z,10.45
2023-01-08T14:51:04.333Z,10.44
2023-01-08T14:53:38.022Z,10.41
2023-01-08T14:56:09.603Z,10.41
2023-01-08T14:58:43.445Z,10.28
2023-01-08T15:01:18.841Z,10.31
2023-01-08T15:03:50.278Z,10.31
2023-01-08T15:06:35.124Z,10.12
2023-01-08T15:09:05.273Z,9.99
2023-01-08T15:11:36.209Z,10.08
2023-01-08T15:14:16.670Z,9.99
2023-01-08T15:16:46.247Z,9.78
2023-01-08T15:19:18.802Z,9.63
2023-01-08T15:21:52.530Z,9.57
2023-01-08T15:24:27.436Z,9.55
2023-01-08T15:26:57.522Z,9.52
2023-01-08T15:29:33.157Z,9.37
2023-01-08T15:32:12.278Z,9.32
2023-01-08T15:34:41.622Z,9.33
2023-01-08T15:37:14.412Z,9.30
2023-01-08T15:39:43.681Z,9.22
2023-01-08T15:42:34.004Z,9.09
2023-01-08T15:45:03.899Z,8.99
2023-01-08T15:47:34.453Z,8.92
2023-01-08T15:50:03.903Z,8.79
2023-01-08T15:52:37.553Z,8.74
2023-01-08T15:55:07.903Z,8.66
2023-01-08T15:57:39.131Z,8.63
2023-01-08T16:00:11.818Z,8.61
2023-01-08T16:02:46.661Z,8.54
2023-01-08T16:05:17.564Z,8.61
2023-01-08T16:07:50.154Z,8.59
2023-01-08T16:10:20.263Z,8.55
2023-01-08T16:12:49.778Z,8.48
2023-01-08T16:15:19.436Z,8.36
2023-01-08T16:17:49.015Z,8.34
2023-01-08T16:20:18.465Z,8.33
2023-01-08T16:22:50.511Z,8.32
2023-01-08T16:25:20.060Z,8.43
2023-01-08T16:27:49.470Z,8.49
2023-01-08T16:30:20.037Z,8.54
2023-01-08T16:32:53.720Z,8.60
2023-01-08T16:35:24.539Z,8.64
2023-01-08T16:37:56.606Z,8.66
2023-01-08T16:40:26.149Z,8.60
2023-01-08T16:42:55.513Z,8.64
2023-01-08T16:45:25.020Z,8.65
2023-01-08T16:47:54.779Z,8.67
2023-01-08T16:50:24.142Z,8.66
2023-01-08T16:52:56.170Z,8.61
2023-01-08T16:55:25.800Z,8.53
2023-01-08T16:57:55.621Z,8.58
2023-01-08T17:00:25.432Z,8.66
2023-01-08T17:02:54.847Z,8.74
2023-01-08T17:05:24.238Z,8.82
2023-01-08T17:07:58.054Z,8.86
2023-01-08T17:10:29.187Z,8.79
2023-01-08T17:12:58.623Z,8.52
2023-01-08T17:15:28.446Z,7.97
2023-01-08T17:17:58.513Z,7.84
2023-01-08T17:20:28.375Z,7.95
2023-01-08T17:23:01.695Z,7.91
2023-01-08T17:25:31.277Z,7.87
2023-01-08T17:28:00.623Z,7.62
2023-01-08T17:30:29.963Z,7.67
2023-01-08T17:32:59.367Z,7.76
2023-01-08T17:35:28.750Z,7.72
2023-01-08T17:38:00.674Z,7.69
2023-01-08T17:40:31.108Z,7.62
2023-01-08T17:43:00.507Z,7.80
2023-01-08T17:45:30.110Z,7.71
2023-01-08T17:47:59.565Z,7.77
2023-01-08T17:50:28.928Z,7.59
2023-01-08T17:53:02.312Z,7.53
2023-01-08T17:55:31.919Z,7.50
2023-01-08T17:58:01.264Z,7.42
2023-01-08T18:00:30.722Z,7.32
2023-01-08T18:03:00.879Z,7.15
2023-01-08T18:05:30.376Z,7.07
2023-01-08T18:08:02.416Z,7.05
2023-01-08T18:10:31.835Z,7.01
2023-01-08T18:13:01.284Z,6.93
2023-01-08T18:15:30.940Z,6.91
2023-01-08T18:18:00.995Z,6.95
2023-01-08T18:20:30.976Z,6.91
2023-01-08T18:23:03.023Z,6.89
2023-01-08T18:25:32.447Z,6.98
2023-01-08T18:28:01.858Z,7.11
2023-01-08T18:30:32.349Z,7.19
2023-01-08T18:33:03.227Z,7.23
2023-01-08T18:35:36.301Z,7.25
2023-01-08T18:38:13.496Z,7.28
2023-01-08T18:40:47.354Z,7.36
2023-01-08T18:43:20.514Z,7.41
2023-01-08T18:45:57.421Z,7.45
2023-01-08T18:48:27.720Z,7.52
2023-01-08T18:50:57.666Z,7.58
2023-01-08T18:53:30.383Z,7.63
2023-01-08T18:56:01.540Z,7.61
2023-01-08T18:58:32.455Z,7.58
2023-01-08T19:01:06.638Z,7.53
2023-01-08T19:03:36.910Z,7.42
2023-01-08T19:06:07.331Z,7.32
2023-01-08T19:08:39.731Z,7.25
2023-01-08T19:11:10.074Z,7.23
2023-01-08T19:13:40.867Z,7.22
2023-01-08T19:16:12.748Z,7.17
2023-01-08T19:18:42.942Z,7.17
2023-01-08T19:21:14.870Z,7.17
2023-01-08T19:23:47.618Z,7.22
2023-01-08T19:26:17.221Z,7.23
2023-01-08T19:28:46.945Z,7.20
2023-01-08T19:31:18.644Z,7.23
2023-01-08T19:33:48.819Z,7.21
2023-01-08T19:36:19.676Z,7.21
2023-01-08T19:38:51.655Z,7.25
2023-01-08T19:41:36.483Z,7.29
2023-01-08T19:44:08.543Z,7.34
2023-01-08T19:46:38.633Z,7.40
2023-01-08T19:49:08.509Z,7.47
2023-01-08T19:51:37.866Z,7.48
2023-01-08T19:54:10.302Z,7.52
2023-01-08T19:56:39.712Z,7.55
2023-01-08T19:59:09.098Z,7.52
2023-01-08T20:01:40.135Z,7.45
2023-01-08T20:04:10.231Z,7.28
2023-01-08T20:06:39.777Z,7.18
2023-01-08T20:09:11.980Z,7.10
2023-01-08T20:11:41.417Z,7.14
2023-01-08T20:14:10.861Z,7.11
2023-01-08T20:16:40.351Z,7.16
2023-01-08T20:19:09.764Z,7.55
2023-01-08T20:21:39.318Z,7.66
2023-01-08T20:24:14.323Z,7.67
2023-01-08T20:26:44.650Z,7.69
2023-01-08T20:29:14.589Z,7.69
2023-01-08T20:31:45.227Z,7.75
2023-01-08T20:34:17.686Z,7.58
2023-01-08T20:36:47.920Z,7.58
2023-01-08T20:39:20.987Z,7.38
2023-01-08T20:41:55.796Z,7.34
2023-01-08T20:44:30.350Z,7.44
2023-01-08T20:46:59.814Z,7.33
2023-01-08T20:49:29.705Z,7.66
2023-01-08T20:52:00.398Z,7.54
2023-01-08T20:54:33.160Z,7.33
2023-01-08T20:57:03.448Z,7.48
2023-01-08T20:59:32.853Z,7.55
2023-01-08T21:02:02.349Z,7.31
2023-01-08T21:04:31.787Z,7.24
2023-01-08T21:07:02.396Z,7.12
2023-01-08T21:09:34.372Z,7.20
2023-01-08T21:12:03.765Z,7.30
2023-01-08T21:14:33.212Z,7.06
2023-01-08T21:17:02.663Z,6.97
2023-01-08T21:19:32.042Z,6.97
2023-01-08T21:22:01.501Z,6.87
2023-01-08T21:24:30.942Z,6.93
2023-01-08T21:27:03.546Z,6.85
2023-01-08T21:29:33.038Z,6.85
2023-01-08T21:32:02.494Z,6.83
2023-01-08T21:34:32.050Z,6.84
2023-01-08T21:37:03.426Z,6.96
2023-01-08T21:39:33.266Z,7.04
2023-01-08T21:42:17.836Z,6.88
2023-01-08T21:44:59.771Z,6.88
2023-01-08T21:47:30.994Z,6.98
2023-01-08T21:50:00.695Z,6.99
2023-01-08T21:52:43.054Z,6.91
2023-01-08T21:55:12.960Z,6.96
2023-01-08T21:57:45.164Z,7.03
2023-01-08T22:00:16.753Z,7.00
2023-01-08T22:02:46.198Z,7.05
2023-01-08T22:05:15.741Z,7.02
2023-01-08T22:07:46.382Z,7.00
2023-01-08T22:10:15.853Z,6.99
2023-01-08T22:12:47.865Z,7.01
2023-01-08T22:15:17.269Z,7.00
2023-01-08T22:17:46.672Z,6.98
2023-01-08T22:20:16.359Z,6.98
2023-01-08T22:22:47.190Z,7.03
2023-01-08T22:25:16.769Z,7.16
2023-01-08T22:27:51.247Z,7.25
2023-01-08T22:30:20.733Z,7.27
2023-01-08T22:32:50.335Z,7.18
2023-01-08T22:35:19.962Z,7.07
2023-01-08T22:37:49.328Z,7.02
2023-01-08T22:40:19.526Z,6.97
2023-01-08T22:42:51.539Z,6.97
2023-01-08T22:45:20.964Z,6.95
2023-01-08T22:47:50.424Z,6.88
2023-01-08T22:50:20.068Z,6.91
2023-01-08T22:52:49.475Z,6.89
2023-01-08T22:55:18.918Z,6.91
2023-01-08T22:57:52.123Z,6.89
2023-01-08T23:00:22.960Z,6.93
2023-01-08T23:02:52.481Z,6.95
2023-01-08T23:05:21.858Z,6.93
2023-01-08T23:07:51.273Z,7.04
2023-01-08T23:10:20.731Z,7.07
2023-01-08T23:12:53.022Z,7.03
2023-01-08T23:15:23.423Z,7.07
2023-01-08T23:17:53.078Z,7.04
2023-01-08T23:20:24.914Z,7.01
2023-01-08T23:22:54.532Z,7.13
2023-01-08T23:25:24.096Z,7.18
2023-01-08T23:27:56.136Z,7.24
2023-01-08T23:30:31.260Z,7.26
2023-01-08T23:33:01.024Z,7.27
2023-01-08T23:35:30.488Z,7.33
2023-01-08T23:37:59.970Z,7.32
2023-01-08T23:40:29.443Z,7.32
2023-01-08T23:43:02.315Z,7.39
2023-01-08T23:45:31.819Z,7.35
2023-01-08T23:48:01.319Z,7.32
2023-01-08T23:50:30.753Z,7.27
2023-01-08T23:53:00.291Z,7.16
2023-01-08T23:55:29.701Z,7.07
2023-01-08T23:58:02.314Z,7.02
